Nezperce, ID

2:53 PM PDT on August 30, 2014 (GMT -0700)
Highland Schools | Change Station
CLOSE
Current Station
Personal Weather Station
Location: Craigmont, ID
Elevation: 3783 ft
Nearby Weather Stations

Elev 3783 ft 46.24 °N, 116.47 °W | Updated 2 seconds ago

Overcast
Overcast
61.0 °F
Feels Like 61.0 °F
N
11.5
Wind Variable Wind from West
Gusts 11.5 mph

Today
High -- | Low -- °F
--% Chance of Precip.
Yesterday
High -- | Low -- °F
Precip. -- in
6:03 AM 7:27 PM
Waxing Crescent, 25% visible
Pressure 29.92 in
Visibility 10.0 miles
Clouds Scattered Clouds 11000 ft
Dew Point 42 °F
Humidity 49%
Rainfall 0.00 in
Snow Depth Not available.
UV 5 out of 12
Pollen 7.40 out of 12
PM2.5 Good
Flu Activity Not available.
METAR KGIC 302135Z AUTO 00000KT 10SM SCT110 21/04 A2992 RMK AO1 T02120043

More Conditions Fewer Conditions

Pressure 29.92 in
Visibility 10.0 miles
Clouds Scattered Clouds 11000 ft
Dew Point 42 °F
Humidity 49%
Rainfall 0.00 in
Snow Depth Not available.
UV 5 out of 12
Pollen 7.40 out of 12
PM2.5 Good
Flu Activity Not available.
METAR KGIC 302135Z AUTO 00000KT 10SM SCT110 21/04 A2992 RMK AO1 T02120043

More Conditions Fewer Conditions

10-Day Weather Forecast

Almanac

Astronomy

Aug. 30, 2014 Rise Set
Actual Time 6:03 AM PDT 7:27 PM PDT
Civil Twilight 5:31 AM PDT 7:58 PM PDT
Nautical Twilight 4:54 AM PDT 8:35 PM PDT
Astronomical Twilight 4:13 AM PDT 9:16 PM PDT
Moon 11:13 AM PDT 9:45 PM PDT
Length of Visible Light 14h 26m
Length of Day
13h 24m
Tomorrow will be 3m 8s shorter.
Waxing Crescent, 25% of the Moon is Illuminated
Today
Waxing Crescent
Sep 2
First Quarter
Sep 8
Full
Sep 15
Last Quarter
Sep 24
New

Today's Extremes

State Highs State Lows

Community

WunderPhotos

Upload Photos

1,748,647 photos uploaded!

WunderBlogs® & News

Nearby

Air Quality

  Air Quality AQ Index Pollutant
Yesterday Good
PM2.5
Current Good
PM2.5
Saturday Good
PM2.5
Sunday Good
PM2.5
Monday Good
PM2.5

Snow Depth

Station Depth Elevation
Hemlock Butte 0 in 5810 ft
Moscow Mountain 0 in 4700 ft
Sherwin 0 in 3200 ft
Lost Lake 0 in 6110 ft
Mica Creek 0 in 4750 ft

Earthquake Activity

City Distance Mag. Time & Date
No recent earthquake activity has been reported nearby.
Minimum magnitude displayed is 2.5.

Coastal Water Temperatures

Place Temperature
No Stations Reporting

Nearby Weather Stations